Flight Track Log - Related Links

Times and Time Zones

All times are in EDT time to prevent confusion due to time zone crossing. See the SWA17 flight status page for this flight to view local times or setup timezone preferences in your user account.

Time Position Orientation Groundspeed Altitude Reporting Facility
EDT Latitude Longitude Course Direction KTS MPH feet Rate Location/Type
Sat 06:15:48 AM 42.7611 -73.8089 330° Northwest 152 175 1,300  Level Boston Center
Sat 06:17:01 AM 42.8128 -73.8497 330° Northwest 203 234 5,400 4,054 Climbing Boston Center
Sat 06:17:39 AM 42.8353 -73.8811 314° West 193 222 8,800 3,429 Climbing Boston Center
Sat 06:18:39 AM 42.8742 -73.9331 316° Northwest 193 222 11,000 1,100 Climbing Boston Center
Sat 06:19:39 AM 42.8750 -74.0267 271° West 203 234 11,000 1,350 Level Boston Center
Sat 06:20:39 AM 42.8258 -74.1075 230° Southwest 241 277 13,700 3,050 Climbing Boston Center
Sat 06:21:39 AM 42.7403 -74.1081 180° South 241 277 17,100 3,450 Climbing Boston Center
Sat 06:22:39 AM 42.6306 -74.0569 161° South 321 369 20,600 3,150 Climbing Boston Center
Sat 06:23:39 AM 42.5231 -74.0008 159° South 376 433 23,400 1,850 Climbing Boston Center
Sat 06:24:39 AM 42.3989 -73.9358 159° South 421 484 24,300 1,400 Climbing Boston Center
Sat 06:25:39 AM 42.2664 -73.8653 158° South 468 539 26,200 1,850 Climbing Boston Center
Sat 06:26:39 AM 42.1236 -73.7892 158° South 522 601 28,000 900 Climbing Boston Center
Sat 06:27:39 AM 41.9739 -73.7581 171° South 543 625 28,000  Level Boston Center
Sat 06:30:02 AM 41.6503 -73.9358 202° Southwest 534 615 28,000  Level New York Center
Sat 06:31:03 AM 41.5192 -74.0044 201° Southwest 529 609 28,000  Level New York Center
Sat 06:32:03 AM 41.3944 -74.0731 202° Southwest 529 609 28,000  Level New York Center
Sat 06:33:01 AM 41.2569 -74.1519 203° Southwest 529 609 28,000  Level New York Center
Sat 06:34:02 AM 41.1175 -74.2192 200° South 534 615 28,000  Level New York Center
Sat 06:35:02 AM 40.9842 -74.2950 203° Southwest 534 615 28,000  Level New York Center
Sat 06:36:15 AM 40.8211 -74.3825 202° Southwest 534 615 28,000  Level New York Center
Sat 06:37:15 AM 40.7231 -74.5142 226° Southwest 512 589 28,000  Level New York Center
Sat 06:38:13 AM 40.6372 -74.6544 231° Southwest 494 568 28,000 -151 Level New York Center
Sat 06:39:14 AM 40.5494 -74.7914 230° Southwest 499 574 27,700 -645 Descending New York Center
Sat 06:40:14 AM 40.4553 -74.9222 227° Southwest 499 574 26,700 -1,000 Descending New York Center
Sat 06:41:14 AM 40.3608 -75.0556 227° Southwest 499 574 25,700 -1,008 Descending New York Center
Sat 06:42:13 AM 40.2706 -75.1858 228° Southwest 494 568 24,700 -1,000 Descending New York Center
Sat 06:43:14 AM 40.1783 -75.3133 227° Southwest 494 568 23,700 -1,000 Descending New York Center
Sat 06:44:13 AM 40.0900 -75.4378 227° Southwest 489 563 22,700 -1,000 Descending New York Center
Sat 06:45:14 AM 40.0017 -75.5592 226° Southwest 483 556 21,700 -1,041 Descending New York Center
Sat 06:46:14 AM 39.9178 -75.6753 227° Southwest 468 539 20,600 -1,059 Descending New York Center
Sat 06:47:13 AM 39.8519 -75.8003 236° Southwest 440 506 19,600 -1,350 Descending New York Center
Sat 06:48:14 AM 39.7864 -75.9200 235° Southwest 420 483 17,900 -1,983 Descending New York Center
Sat 06:49:14 AM 39.7222 -76.0475 237° Southwest 398 458 15,600 -2,065 Descending New York Center
Sat 06:51:20 AM 39.6000 -76.2667 234° Southwest 332 382 11,500 -1,968 Descending Potomac TRACON
Sat 06:52:20 AM 39.5333 -76.3500 224° Southwest 327 376 9,500 -1,500 Descending Potomac TRACON
Sat 06:53:20 AM 39.4667 -76.4000 210° Southwest 286 329 8,500 -1,414 Descending Potomac TRACON
Sat 06:55:14 AM 39.3333 -76.4667 201° Southwest 282 325 5,400 -1,517 Descending Potomac TRACON
Sat 06:56:14 AM 39.2500 -76.4667 180° South 268 308 4,100 -1,050 Descending Potomac TRACON
Sat 06:57:14 AM 39.1833 -76.5000 201° Southwest 265 305 3,300 -650 Descending Potomac TRACON
Sat 06:58:14 AM 39.1500 -76.5500 229° Southwest 234 269 2,800 -850 Descending Potomac TRACON
Sat 06:59:14 AM 39.1167 -76.6000 229° Southwest 177 204 1,600 -1,000 Descending Potomac TRACON
Sat 07:00:02 AM 39.1333 -76.6333 303° West 130 150 1,000 -750 Descending Potomac TRACON

Login

Don't have an account? Register now (free) for customized features, flight alerts, and more!